Terminal Aerodrome Forecast
Issued by NWS Tampa Bay Area, FL

Current Version | Previous Version | Text Only | Print | Product List | Glossary On
Versions: 1 2 3 4 5 6 7 8 9 10 11 12 13 14 15
000
FTUS42 KTBW 271725
TAFFMY
TAF
KFMY 271725Z 2718/2818 29010KT P6SM SKC
     FM280200 31005KT P6SM FEW250
     FM280600 VRB04KT P6SM FEW250
     FM281500 27008KT P6SM SCT250=

USA.gov is the U.S. government's official web portal to all federal, state and local government web resources and services.